sensor_id;sensor_type;location;lat;lon;timestamp;P1;durP1;ratioP1;P2;durP2;ratioP2
22270;SDS011;11304;53.520;10.104;2024-02-28T00:00:05;10.20;;;8.88;;
22270;SDS011;11304;53.520;10.104;2024-02-28T00:02:31;11.82;;;10.40;;
22270;SDS011;11304;53.520;10.104;2024-02-28T00:04:57;12.77;;;11.35;;
22270;SDS011;11304;53.520;10.104;2024-02-28T00:07:24;12.73;;;10.45;;
22270;SDS011;11304;53.520;10.104;2024-02-28T00:09:50;13.70;;;12.23;;
22270;SDS011;11304;53.520;10.104;2024-02-28T00:12:16;14.98;;;12.32;;
22270;SDS011;11304;53.520;10.104;2024-02-28T00:14:42;16.90;;;13.70;;
22270;SDS011;11304;53.520;10.104;2024-02-28T00:17:08;17.55;;;13.35;;
22270;SDS011;11304;53.520;10.104;2024-02-28T00:19:34;14.63;;;12.35;;
22270;SDS011;11304;53.520;10.104;2024-02-28T00:22:01;15.23;;;12.85;;
22270;SDS011;11304;53.520;10.104;2024-02-28T00:24:27;15.95;;;13.77;;
22270;SDS011;11304;53.520;10.104;2024-02-28T00:26:53;17.65;;;14.13;;
22270;SDS011;11304;53.520;10.104;2024-02-28T00:29:19;17.30;;;14.68;;
22270;SDS011;11304;53.520;10.104;2024-02-28T00:31:45;18.20;;;14.65;;
22270;SDS011;11304;53.520;10.104;2024-02-28T00:34:11;15.88;;;14.18;;
22270;SDS011;11304;53.520;10.104;2024-02-28T00:36:37;23.30;;;16.48;;
22270;SDS011;11304;53.520;10.104;2024-02-28T00:39:03;19.08;;;15.70;;
22270;SDS011;11304;53.520;10.104;2024-02-28T00:41:29;17.33;;;14.45;;
22270;SDS011;11304;53.520;10.104;2024-02-28T00:43:55;17.30;;;15.02;;
22270;SDS011;11304;53.520;10.104;2024-02-28T00:46:21;20.02;;;17.50;;
22270;SDS011;11304;53.520;10.104;2024-02-28T00:48:47;20.52;;;17.42;;
22270;SDS011;11304;53.520;10.104;2024-02-28T00:51:13;17.92;;;15.38;;
22270;SDS011;11304;53.520;10.104;2024-02-28T00:53:39;20.33;;;17.05;;
22270;SDS011;11304;53.520;10.104;2024-02-28T00:56:06;20.60;;;17.98;;
22270;SDS011;11304;53.520;10.104;2024-02-28T00:58:32;22.17;;;17.52;;
22270;SDS011;11304;53.520;10.104;2024-02-28T01:00:58;19.98;;;17.70;;
22270;SDS011;11304;53.520;10.104;2024-02-28T01:03:24;21.58;;;17.80;;
22270;SDS011;11304;53.520;10.104;2024-02-28T01:05:50;22.10;;;18.67;;
22270;SDS011;11304;53.520;10.104;2024-02-28T01:08:17;21.00;;;18.08;;
22270;SDS011;11304;53.520;10.104;2024-02-28T01:10:43;23.83;;;19.88;;
22270;SDS011;11304;53.520;10.104;2024-02-28T01:13:09;25.35;;;19.25;;
22270;SDS011;11304;53.520;10.104;2024-02-28T01:15:36;20.80;;;17.50;;
22270;SDS011;11304;53.520;10.104;2024-02-28T01:18:02;23.15;;;19.05;;
22270;SDS011;11304;53.520;10.104;2024-02-28T01:20:28;22.30;;;17.52;;
22270;SDS011;11304;53.520;10.104;2024-02-28T01:22:54;23.48;;;19.23;;
22270;SDS011;11304;53.520;10.104;2024-02-28T01:25:20;20.60;;;17.50;;
22270;SDS011;11304;53.520;10.104;2024-02-28T01:27:46;25.95;;;19.92;;
22270;SDS011;11304;53.520;10.104;2024-02-28T01:30:12;25.50;;;19.65;;
22270;SDS011;11304;53.520;10.104;2024-02-28T01:32:38;23.77;;;19.67;;
22270;SDS011;11304;53.520;10.104;2024-02-28T01:35:04;24.20;;;20.20;;
22270;SDS011;11304;53.520;10.104;2024-02-28T01:37:31;22.90;;;19.27;;
22270;SDS011;11304;53.520;10.104;2024-02-28T01:39:57;23.20;;;19.73;;
22270;SDS011;11304;53.520;10.104;2024-02-28T01:42:23;23.17;;;19.17;;
22270;SDS011;11304;53.520;10.104;2024-02-28T01:44:49;24.20;;;20.08;;
22270;SDS011;11304;53.520;10.104;2024-02-28T01:47:15;24.75;;;20.30;;
22270;SDS011;11304;53.520;10.104;2024-02-28T01:49:41;22.13;;;18.92;;
22270;SDS011;11304;53.520;10.104;2024-02-28T01:52:09;26.95;;;20.52;;
22270;SDS011;11304;53.520;10.104;2024-02-28T01:54:35;29.02;;;23.00;;
22270;SDS011;11304;53.520;10.104;2024-02-28T01:57:01;28.75;;;23.25;;
22270;SDS011;11304;53.520;10.104;2024-02-28T01:59:28;28.50;;;22.23;;
22270;SDS011;11304;53.520;10.104;2024-02-28T02:01:55;32.55;;;24.88;;
22270;SDS011;11304;53.520;10.104;2024-02-28T02:04:21;32.60;;;24.80;;
22270;SDS011;11304;53.520;10.104;2024-02-28T02:06:47;32.53;;;24.77;;
22270;SDS011;11304;53.520;10.104;2024-02-28T02:09:14;31.27;;;24.67;;
22270;SDS011;11304;53.520;10.104;2024-02-28T02:11:40;34.50;;;26.70;;
22270;SDS011;11304;53.520;10.104;2024-02-28T02:14:06;37.47;;;27.30;;
22270;SDS011;11304;53.520;10.104;2024-02-28T02:16:32;37.92;;;27.65;;
22270;SDS011;11304;53.520;10.104;2024-02-28T02:18:59;31.58;;;23.75;;
22270;SDS011;11304;53.520;10.104;2024-02-28T02:21:34;32.78;;;25.25;;
22270;SDS011;11304;53.520;10.104;2024-02-28T02:24:03;36.47;;;25.40;;
22270;SDS011;11304;53.520;10.104;2024-02-28T02:26:29;32.25;;;24.92;;
22270;SDS011;11304;53.520;10.104;2024-02-28T02:28:55;36.45;;;26.50;;
22270;SDS011;11304;53.520;10.104;2024-02-28T02:31:21;38.13;;;26.90;;
22270;SDS011;11304;53.520;10.104;2024-02-28T02:33:47;34.47;;;25.92;;
22270;SDS011;11304;53.520;10.104;2024-02-28T02:36:13;36.38;;;25.88;;
22270;SDS011;11304;53.520;10.104;2024-02-28T02:38:39;35.50;;;25.88;;
22270;SDS011;11304;53.520;10.104;2024-02-28T02:41:05;35.15;;;24.83;;
22270;SDS011;11304;53.520;10.104;2024-02-28T02:43:31;33.85;;;24.98;;
22270;SDS011;11304;53.520;10.104;2024-02-28T02:45:57;34.00;;;24.83;;
22270;SDS011;11304;53.520;10.104;2024-02-28T02:48:23;31.45;;;23.95;;
22270;SDS011;11304;53.520;10.104;2024-02-28T02:50:49;33.60;;;25.10;;
22270;SDS011;11304;53.520;10.104;2024-02-28T02:53:15;34.03;;;24.50;;
22270;SDS011;11304;53.520;10.104;2024-02-28T02:55:41;34.45;;;25.55;;
22270;SDS011;11304;53.520;10.104;2024-02-28T02:58:07;34.70;;;25.05;;
22270;SDS011;11304;53.520;10.104;2024-02-28T03:00:33;32.67;;;24.17;;
22270;SDS011;11304;53.520;10.104;2024-02-28T03:02:59;35.00;;;25.95;;
22270;SDS011;11304;53.520;10.104;2024-02-28T03:05:25;37.08;;;26.33;;
22270;SDS011;11304;53.520;10.104;2024-02-28T03:07:51;33.92;;;24.60;;
22270;SDS011;11304;53.520;10.104;2024-02-28T03:10:17;34.88;;;25.02;;
22270;SDS011;11304;53.520;10.104;2024-02-28T03:12:43;35.50;;;25.65;;
22270;SDS011;11304;53.520;10.104;2024-02-28T03:15:09;34.00;;;25.25;;
22270;SDS011;11304;53.520;10.104;2024-02-28T03:17:35;36.55;;;24.70;;
22270;SDS011;11304;53.520;10.104;2024-02-28T03:20:01;37.65;;;24.75;;
22270;SDS011;11304;53.520;10.104;2024-02-28T03:22:28;39.67;;;26.27;;
22270;SDS011;11304;53.520;10.104;2024-02-28T03:24:54;40.15;;;27.30;;
22270;SDS011;11304;53.520;10.104;2024-02-28T03:27:20;39.00;;;25.80;;
22270;SDS011;11304;53.520;10.104;2024-02-28T03:29:46;42.10;;;27.58;;
22270;SDS011;11304;53.520;10.104;2024-02-28T03:32:12;40.75;;;25.98;;
22270;SDS011;11304;53.520;10.104;2024-02-28T03:34:38;39.83;;;26.38;;
22270;SDS011;11304;53.520;10.104;2024-02-28T03:37:04;38.00;;;25.13;;
22270;SDS011;11304;53.520;10.104;2024-02-28T03:39:30;37.78;;;24.98;;
22270;SDS011;11304;53.520;10.104;2024-02-28T03:41:56;37.97;;;24.60;;
22270;SDS011;11304;53.520;10.104;2024-02-28T03:44:22;35.72;;;24.15;;
22270;SDS011;11304;53.520;10.104;2024-02-28T03:46:50;39.43;;;25.17;;
22270;SDS011;11304;53.520;10.104;2024-02-28T03:49:16;37.97;;;23.90;;
22270;SDS011;11304;53.520;10.104;2024-02-28T03:51:42;38.00;;;24.13;;
22270;SDS011;11304;53.520;10.104;2024-02-28T03:54:08;38.00;;;24.55;;
22270;SDS011;11304;53.520;10.104;2024-02-28T03:56:34;36.47;;;24.50;;
22270;SDS011;11304;53.520;10.104;2024-02-28T03:59:00;39.22;;;24.27;;
22270;SDS011;11304;53.520;10.104;2024-02-28T04:01:27;34.35;;;22.33;;
22270;SDS011;11304;53.520;10.104;2024-02-28T04:03:53;34.42;;;23.02;;
22270;SDS011;11304;53.520;10.104;2024-02-28T04:06:19;35.95;;;23.60;;
22270;SDS011;11304;53.520;10.104;2024-02-28T04:08:45;34.65;;;22.13;;
22270;SDS011;11304;53.520;10.104;2024-02-28T04:11:11;34.83;;;22.70;;
22270;SDS011;11304;53.520;10.104;2024-02-28T04:13:37;34.08;;;21.77;;
22270;SDS011;11304;53.520;10.104;2024-02-28T04:16:03;33.53;;;22.08;;
22270;SDS011;11304;53.520;10.104;2024-02-28T04:18:29;35.08;;;21.60;;
22270;SDS011;11304;53.520;10.104;2024-02-28T04:20:55;34.15;;;21.48;;
22270;SDS011;11304;53.520;10.104;2024-02-28T04:23:21;36.63;;;23.73;;
22270;SDS011;11304;53.520;10.104;2024-02-28T04:25:47;31.85;;;21.52;;
22270;SDS011;11304;53.520;10.104;2024-02-28T04:28:13;35.78;;;22.65;;
22270;SDS011;11304;53.520;10.104;2024-02-28T04:30:39;34.90;;;22.70;;
22270;SDS011;11304;53.520;10.104;2024-02-28T04:33:05;33.38;;;21.67;;
22270;SDS011;11304;53.520;10.104;2024-02-28T04:35:32;33.63;;;22.60;;
22270;SDS011;11304;53.520;10.104;2024-02-28T04:37:58;33.08;;;22.13;;
22270;SDS011;11304;53.520;10.104;2024-02-28T04:40:24;32.97;;;21.83;;
22270;SDS011;11304;53.520;10.104;2024-02-28T04:42:50;33.75;;;21.25;;
22270;SDS011;11304;53.520;10.104;2024-02-28T04:45:17;35.40;;;23.27;;
22270;SDS011;11304;53.520;10.104;2024-02-28T04:47:43;34.75;;;23.45;;
22270;SDS011;11304;53.520;10.104;2024-02-28T04:50:09;32.50;;;21.52;;
22270;SDS011;11304;53.520;10.104;2024-02-28T04:52:35;37.50;;;24.08;;
22270;SDS011;11304;53.520;10.104;2024-02-28T04:55:01;39.72;;;23.95;;
22270;SDS011;11304;53.520;10.104;2024-02-28T04:57:27;36.70;;;23.90;;
22270;SDS011;11304;53.520;10.104;2024-02-28T04:59:54;41.38;;;25.83;;
22270;SDS011;11304;53.520;10.104;2024-02-28T05:02:20;36.67;;;24.08;;
22270;SDS011;11304;53.520;10.104;2024-02-28T05:04:50;36.00;;;23.70;;
22270;SDS011;11304;53.520;10.104;2024-02-28T05:07:16;36.50;;;24.60;;
22270;SDS011;11304;53.520;10.104;2024-02-28T05:09:43;35.85;;;23.85;;
22270;SDS011;11304;53.520;10.104;2024-02-28T05:12:09;36.42;;;23.65;;
22270;SDS011;11304;53.520;10.104;2024-02-28T05:14:36;34.47;;;23.50;;
22270;SDS011;11304;53.520;10.104;2024-02-28T05:17:03;34.47;;;23.27;;
22270;SDS011;11304;53.520;10.104;2024-02-28T05:19:29;34.38;;;22.55;;
22270;SDS011;11304;53.520;10.104;2024-02-28T05:21:56;38.47;;;24.15;;
22270;SDS011;11304;53.520;10.104;2024-02-28T05:24:22;34.95;;;23.63;;
22270;SDS011;11304;53.520;10.104;2024-02-28T05:26:48;34.50;;;24.08;;
22270;SDS011;11304;53.520;10.104;2024-02-28T05:29:14;36.03;;;24.08;;
22270;SDS011;11304;53.520;10.104;2024-02-28T05:31:40;35.13;;;23.75;;
22270;SDS011;11304;53.520;10.104;2024-02-28T05:34:06;35.92;;;23.45;;
22270;SDS011;11304;53.520;10.104;2024-02-28T05:36:32;32.67;;;22.50;;
22270;SDS011;11304;53.520;10.104;2024-02-28T05:38:59;28.75;;;20.48;;
22270;SDS011;11304;53.520;10.104;2024-02-28T05:41:26;29.07;;;20.43;;
22270;SDS011;11304;53.520;10.104;2024-02-28T05:43:52;28.90;;;20.33;;
22270;SDS011;11304;53.520;10.104;2024-02-28T05:46:18;28.30;;;20.48;;
22270;SDS011;11304;53.520;10.104;2024-02-28T05:51:16;30.13;;;19.60;;
22270;SDS011;11304;53.520;10.104;2024-02-28T05:53:42;25.55;;;18.63;;
22270;SDS011;11304;53.520;10.104;2024-02-28T05:56:08;27.42;;;18.50;;
22270;SDS011;11304;53.520;10.104;2024-02-28T05:58:39;24.92;;;16.92;;
22270;SDS011;11304;53.520;10.104;2024-02-28T06:01:05;32.33;;;19.88;;
22270;SDS011;11304;53.520;10.104;2024-02-28T06:03:32;27.00;;;18.13;;
22270;SDS011;11304;53.520;10.104;2024-02-28T06:05:59;26.85;;;18.08;;
22270;SDS011;11304;53.520;10.104;2024-02-28T06:08:25;24.40;;;17.88;;
22270;SDS011;11304;53.520;10.104;2024-02-28T06:10:51;27.00;;;18.25;;
22270;SDS011;11304;53.520;10.104;2024-02-28T06:13:17;24.88;;;17.52;;
22270;SDS011;11304;53.520;10.104;2024-02-28T06:15:43;27.02;;;19.05;;
22270;SDS011;11304;53.520;10.104;2024-02-28T06:18:09;24.15;;;17.58;;
22270;SDS011;11304;53.520;10.104;2024-02-28T06:20:36;25.33;;;17.25;;
22270;SDS011;11304;53.520;10.104;2024-02-28T06:23:02;26.90;;;17.77;;
22270;SDS011;11304;53.520;10.104;2024-02-28T06:25:28;26.63;;;17.73;;
22270;SDS011;11304;53.520;10.104;2024-02-28T06:27:54;25.45;;;18.25;;
22270;SDS011;11304;53.520;10.104;2024-02-28T06:30:20;24.58;;;18.15;;
22270;SDS011;11304;53.520;10.104;2024-02-28T06:32:46;25.55;;;17.75;;
22270;SDS011;11304;53.520;10.104;2024-02-28T06:35:12;25.90;;;17.92;;
22270;SDS011;11304;53.520;10.104;2024-02-28T06:37:38;25.17;;;17.67;;
22270;SDS011;11304;53.520;10.104;2024-02-28T06:40:04;25.42;;;17.60;;
22270;SDS011;11304;53.520;10.104;2024-02-28T06:42:34;25.48;;;18.17;;
22270;SDS011;11304;53.520;10.104;2024-02-28T06:45:01;27.67;;;19.25;;
22270;SDS011;11304;53.520;10.104;2024-02-28T06:47:27;24.65;;;18.25;;
22270;SDS011;11304;53.520;10.104;2024-02-28T06:49:53;28.27;;;17.80;;
22270;SDS011;11304;53.520;10.104;2024-02-28T06:52:19;24.80;;;17.75;;
22270;SDS011;11304;53.520;10.104;2024-02-28T06:54:45;24.65;;;17.48;;
22270;SDS011;11304;53.520;10.104;2024-02-28T06:57:11;24.13;;;17.30;;
22270;SDS011;11304;53.520;10.104;2024-02-28T06:59:37;22.77;;;15.98;;
22270;SDS011;11304;53.520;10.104;2024-02-28T07:02:03;21.90;;;16.40;;
22270;SDS011;11304;53.520;10.104;2024-02-28T07:04:30;21.92;;;16.73;;
22270;SDS011;11304;53.520;10.104;2024-02-28T07:06:56;25.23;;;17.73;;
22270;SDS011;11304;53.520;10.104;2024-02-28T07:09:22;24.27;;;16.67;;
22270;SDS011;11304;53.520;10.104;2024-02-28T07:11:51;21.52;;;15.98;;
22270;SDS011;11304;53.520;10.104;2024-02-28T07:14:17;27.42;;;17.67;;
22270;SDS011;11304;53.520;10.104;2024-02-28T07:16:43;25.13;;;16.70;;
22270;SDS011;11304;53.520;10.104;2024-02-28T07:19:09;24.63;;;16.88;;
22270;SDS011;11304;53.520;10.104;2024-02-28T07:21:35;24.90;;;17.77;;
22270;SDS011;11304;53.520;10.104;2024-02-28T07:24:02;24.33;;;17.23;;
22270;SDS011;11304;53.520;10.104;2024-02-28T07:26:30;23.30;;;16.73;;
22270;SDS011;11304;53.520;10.104;2024-02-28T07:28:56;22.98;;;17.20;;
22270;SDS011;11304;53.520;10.104;2024-02-28T07:31:22;26.48;;;16.80;;
22270;SDS011;11304;53.520;10.104;2024-02-28T07:33:48;21.30;;;15.63;;
22270;SDS011;11304;53.520;10.104;2024-02-28T07:36:14;24.02;;;17.45;;
22270;SDS011;11304;53.520;10.104;2024-02-28T07:38:43;24.27;;;17.05;;
22270;SDS011;11304;53.520;10.104;2024-02-28T07:41:09;22.30;;;16.10;;
22270;SDS011;11304;53.520;10.104;2024-02-28T07:43:35;22.80;;;16.77;;
22270;SDS011;11304;53.520;10.104;2024-02-28T07:46:07;26.30;;;17.90;;
22270;SDS011;11304;53.520;10.104;2024-02-28T07:48:34;23.38;;;16.95;;
22270;SDS011;11304;53.520;10.104;2024-02-28T07:51:00;24.10;;;15.77;;
22270;SDS011;11304;53.520;10.104;2024-02-28T07:53:26;23.25;;;16.83;;
22270;SDS011;11304;53.520;10.104;2024-02-28T07:55:52;23.60;;;16.63;;
22270;SDS011;11304;53.520;10.104;2024-02-28T07:58:18;22.48;;;15.98;;
22270;SDS011;11304;53.520;10.104;2024-02-28T08:00:44;25.90;;;16.58;;
22270;SDS011;11304;53.520;10.104;2024-02-28T08:03:10;22.27;;;16.10;;
22270;SDS011;11304;53.520;10.104;2024-02-28T08:05:37;25.77;;;17.60;;
22270;SDS011;11304;53.520;10.104;2024-02-28T08:08:08;24.02;;;17.05;;
22270;SDS011;11304;53.520;10.104;2024-02-28T08:10:34;22.10;;;15.45;;
22270;SDS011;11304;53.520;10.104;2024-02-28T08:13:01;23.85;;;16.95;;
22270;SDS011;11304;53.520;10.104;2024-02-28T08:15:27;21.73;;;15.85;;
22270;SDS011;11304;53.520;10.104;2024-02-28T08:17:53;23.08;;;16.05;;
22270;SDS011;11304;53.520;10.104;2024-02-28T08:20:19;23.13;;;17.25;;
22270;SDS011;11304;53.520;10.104;2024-02-28T08:22:45;27.08;;;17.00;;
22270;SDS011;11304;53.520;10.104;2024-02-28T08:25:12;27.02;;;18.27;;
22270;SDS011;11304;53.520;10.104;2024-02-28T08:27:39;21.17;;;16.13;;
22270;SDS011;11304;53.520;10.104;2024-02-28T08:30:05;25.25;;;17.42;;
22270;SDS011;11304;53.520;10.104;2024-02-28T08:32:31;25.73;;;18.08;;
22270;SDS011;11304;53.520;10.104;2024-02-28T08:34:57;24.83;;;17.58;;
22270;SDS011;11304;53.520;10.104;2024-02-28T08:37:24;26.50;;;18.30;;
22270;SDS011;11304;53.520;10.104;2024-02-28T08:39:51;24.48;;;17.20;;
22270;SDS011;11304;53.520;10.104;2024-02-28T08:42:17;25.17;;;18.50;;
22270;SDS011;11304;53.520;10.104;2024-02-28T08:44:43;25.10;;;18.45;;
22270;SDS011;11304;53.520;10.104;2024-02-28T08:47:09;24.70;;;18.23;;
22270;SDS011;11304;53.520;10.104;2024-02-28T08:49:38;27.98;;;19.92;;
22270;SDS011;11304;53.520;10.104;2024-02-28T08:52:04;26.08;;;19.88;;
22270;SDS011;11304;53.520;10.104;2024-02-28T08:54:30;31.05;;;20.90;;
22270;SDS011;11304;53.520;10.104;2024-02-28T08:56:56;27.52;;;20.08;;
22270;SDS011;11304;53.520;10.104;2024-02-28T08:59:22;27.25;;;20.13;;
22270;SDS011;11304;53.520;10.104;2024-02-28T09:01:49;26.65;;;20.10;;
22270;SDS011;11304;53.520;10.104;2024-02-28T09:04:15;31.30;;;20.35;;
22270;SDS011;11304;53.520;10.104;2024-02-28T09:06:41;31.15;;;21.52;;
22270;SDS011;11304;53.520;10.104;2024-02-28T09:09:07;29.55;;;22.40;;
22270;SDS011;11304;53.520;10.104;2024-02-28T09:11:33;36.75;;;23.73;;
22270;SDS011;11304;53.520;10.104;2024-02-28T09:13:59;32.97;;;23.80;;
22270;SDS011;11304;53.520;10.104;2024-02-28T09:16:25;30.02;;;22.70;;
22270;SDS011;11304;53.520;10.104;2024-02-28T09:18:51;31.35;;;23.00;;
22270;SDS011;11304;53.520;10.104;2024-02-28T09:21:17;31.08;;;23.75;;
22270;SDS011;11304;53.520;10.104;2024-02-28T09:23:43;30.70;;;23.38;;
22270;SDS011;11304;53.520;10.104;2024-02-28T09:26:09;35.30;;;24.63;;
22270;SDS011;11304;53.520;10.104;2024-02-28T09:28:35;33.63;;;25.17;;
22270;SDS011;11304;53.520;10.104;2024-02-28T09:31:01;32.13;;;24.30;;
22270;SDS011;11304;53.520;10.104;2024-02-28T09:33:28;34.08;;;25.52;;
22270;SDS011;11304;53.520;10.104;2024-02-28T09:35:54;30.00;;;23.50;;
22270;SDS011;11304;53.520;10.104;2024-02-28T09:38:21;33.25;;;25.08;;
22270;SDS011;11304;53.520;10.104;2024-02-28T09:40:47;36.28;;;25.75;;
22270;SDS011;11304;53.520;10.104;2024-02-28T09:43:19;33.50;;;25.30;;
22270;SDS011;11304;53.520;10.104;2024-02-28T09:45:47;37.63;;;26.25;;
22270;SDS011;11304;53.520;10.104;2024-02-28T09:48:13;34.88;;;25.58;;
22270;SDS011;11304;53.520;10.104;2024-02-28T09:50:41;35.25;;;26.77;;
22270;SDS011;11304;53.520;10.104;2024-02-28T09:53:07;35.10;;;24.17;;
22270;SDS011;11304;53.520;10.104;2024-02-28T09:55:33;32.25;;;25.05;;
22270;SDS011;11304;53.520;10.104;2024-02-28T09:57:59;33.63;;;25.48;;
22270;SDS011;11304;53.520;10.104;2024-02-28T10:00:26;33.13;;;28.90;;
22270;SDS011;11304;53.520;10.104;2024-02-28T10:02:52;38.30;;;27.42;;
22270;SDS011;11304;53.520;10.104;2024-02-28T10:05:19;33.65;;;25.88;;
22270;SDS011;11304;53.520;10.104;2024-02-28T10:07:46;34.10;;;25.52;;
22270;SDS011;11304;53.520;10.104;2024-02-28T10:10:12;35.35;;;24.45;;
22270;SDS011;11304;53.520;10.104;2024-02-28T10:12:41;30.73;;;23.20;;
22270;SDS011;11304;53.520;10.104;2024-02-28T10:15:09;32.10;;;23.98;;
22270;SDS011;11304;53.520;10.104;2024-02-28T10:17:36;30.90;;;23.23;;
22270;SDS011;11304;53.520;10.104;2024-02-28T10:20:02;33.85;;;23.30;;
22270;SDS011;11304;53.520;10.104;2024-02-28T10:22:36;29.95;;;22.23;;
22270;SDS011;11304;53.520;10.104;2024-02-28T10:25:03;28.50;;;21.92;;
22270;SDS011;11304;53.520;10.104;2024-02-28T10:27:31;30.58;;;22.98;;
22270;SDS011;11304;53.520;10.104;2024-02-28T10:32:23;32.40;;;20.63;;
22270;SDS011;11304;53.520;10.104;2024-02-28T10:34:49;27.83;;;21.17;;
22270;SDS011;11304;53.520;10.104;2024-02-28T10:37:16;27.25;;;20.88;;
22270;SDS011;11304;53.520;10.104;2024-02-28T10:39:42;23.27;;;19.08;;
22270;SDS011;11304;53.520;10.104;2024-02-28T10:42:09;27.67;;;19.98;;
22270;SDS011;11304;53.520;10.104;2024-02-28T10:44:35;26.23;;;19.27;;
22270;SDS011;11304;53.520;10.104;2024-02-28T10:47:02;26.33;;;18.65;;
22270;SDS011;11304;53.520;10.104;2024-02-28T10:49:28;22.83;;;17.40;;
22270;SDS011;11304;53.520;10.104;2024-02-28T10:51:55;23.73;;;18.98;;
22270;SDS011;11304;53.520;10.104;2024-02-28T10:54:22;26.38;;;20.60;;
22270;SDS011;11304;53.520;10.104;2024-02-28T10:56:50;19.90;;;14.55;;
22270;SDS011;11304;53.520;10.104;2024-02-28T10:59:17;26.95;;;19.85;;
22270;SDS011;11304;53.520;10.104;2024-02-28T11:01:43;24.95;;;18.55;;
22270;SDS011;11304;53.520;10.104;2024-02-28T11:04:10;27.65;;;20.85;;
22270;SDS011;11304;53.520;10.104;2024-02-28T11:06:47;31.20;;;21.80;;
22270;SDS011;11304;53.520;10.104;2024-02-28T11:09:18;27.23;;;20.85;;
22270;SDS011;11304;53.520;10.104;2024-02-28T11:11:44;29.58;;;21.17;;
22270;SDS011;11304;53.520;10.104;2024-02-28T11:14:14;28.75;;;21.00;;
22270;SDS011;11304;53.520;10.104;2024-02-28T11:16:41;29.92;;;21.10;;
22270;SDS011;11304;53.520;10.104;2024-02-28T11:19:18;29.63;;;21.67;;
22270;SDS011;11304;53.520;10.104;2024-02-28T11:21:46;28.80;;;21.90;;
22270;SDS011;11304;53.520;10.104;2024-02-28T11:24:19;27.98;;;21.50;;
22270;SDS011;11304;53.520;10.104;2024-02-28T11:26:48;31.15;;;22.88;;
22270;SDS011;11304;53.520;10.104;2024-02-28T11:31:41;29.58;;;21.50;;
22270;SDS011;11304;53.520;10.104;2024-02-28T11:36:33;28.30;;;21.25;;
22270;SDS011;11304;53.520;10.104;2024-02-28T11:39:01;27.52;;;20.52;;
22270;SDS011;11304;53.520;10.104;2024-02-28T11:41:28;30.33;;;21.38;;
22270;SDS011;11304;53.520;10.104;2024-02-28T11:43:54;26.80;;;18.60;;
22270;SDS011;11304;53.520;10.104;2024-02-28T11:46:20;25.52;;;19.67;;
22270;SDS011;11304;53.520;10.104;2024-02-28T11:48:46;26.23;;;19.77;;
22270;SDS011;11304;53.520;10.104;2024-02-28T11:51:12;23.92;;;17.65;;
22270;SDS011;11304;53.520;10.104;2024-02-28T11:53:38;28.35;;;18.77;;
22270;SDS011;11304;53.520;10.104;2024-02-28T11:56:04;24.58;;;17.02;;
22270;SDS011;11304;53.520;10.104;2024-02-28T11:58:31;22.95;;;16.05;;
22270;SDS011;11304;53.520;10.104;2024-02-28T12:00:57;23.77;;;14.90;;
22270;SDS011;11304;53.520;10.104;2024-02-28T12:03:23;21.08;;;14.77;;
22270;SDS011;11304;53.520;10.104;2024-02-28T12:05:50;27.33;;;15.13;;
22270;SDS011;11304;53.520;10.104;2024-02-28T12:08:19;24.13;;;15.52;;
22270;SDS011;11304;53.520;10.104;2024-02-28T12:10:46;28.02;;;16.02;;
22270;SDS011;11304;53.520;10.104;2024-02-28T12:13:16;29.25;;;17.17;;
22270;SDS011;11304;53.520;10.104;2024-02-28T12:15:42;27.23;;;17.95;;
22270;SDS011;11304;53.520;10.104;2024-02-28T12:18:08;32.83;;;17.73;;
22270;SDS011;11304;53.520;10.104;2024-02-28T12:20:35;30.92;;;16.95;;
22270;SDS011;11304;53.520;10.104;2024-02-28T12:23:03;30.63;;;18.00;;
22270;SDS011;11304;53.520;10.104;2024-02-28T12:25:29;27.75;;;15.82;;
22270;SDS011;11304;53.520;10.104;2024-02-28T12:27:55;26.10;;;16.90;;
22270;SDS011;11304;53.520;10.104;2024-02-28T12:30:27;27.23;;;17.98;;
22270;SDS011;11304;53.520;10.104;2024-02-28T12:32:53;26.25;;;18.35;;
22270;SDS011;11304;53.520;10.104;2024-02-28T12:35:20;29.30;;;17.88;;
22270;SDS011;11304;53.520;10.104;2024-02-28T12:37:46;28.23;;;17.23;;
22270;SDS011;11304;53.520;10.104;2024-02-28T12:40:13;28.48;;;18.58;;
22270;SDS011;11304;53.520;10.104;2024-02-28T12:42:40;29.42;;;17.27;;
22270;SDS011;11304;53.520;10.104;2024-02-28T12:45:07;30.63;;;17.48;;
22270;SDS011;11304;53.520;10.104;2024-02-28T12:47:33;39.55;;;18.67;;
22270;SDS011;11304;53.520;10.104;2024-02-28T12:49:59;29.73;;;18.38;;
22270;SDS011;11304;53.520;10.104;2024-02-28T12:52:25;27.48;;;17.95;;
22270;SDS011;11304;53.520;10.104;2024-02-28T12:54:51;30.67;;;20.15;;
22270;SDS011;11304;53.520;10.104;2024-02-28T12:57:17;26.17;;;19.20;;
22270;SDS011;11304;53.520;10.104;2024-02-28T12:59:44;30.48;;;19.55;;
22270;SDS011;11304;53.520;10.104;2024-02-28T13:02:10;33.42;;;19.73;;
22270;SDS011;11304;53.520;10.104;2024-02-28T13:04:36;28.42;;;19.23;;
22270;SDS011;11304;53.520;10.104;2024-02-28T13:07:04;33.20;;;19.45;;
22270;SDS011;11304;53.520;10.104;2024-02-28T13:09:30;32.00;;;19.10;;
22270;SDS011;11304;53.520;10.104;2024-02-28T13:11:56;32.97;;;19.23;;
22270;SDS011;11304;53.520;10.104;2024-02-28T13:14:22;27.77;;;18.30;;
22270;SDS011;11304;53.520;10.104;2024-02-28T13:16:48;31.05;;;20.40;;
22270;SDS011;11304;53.520;10.104;2024-02-28T13:21:43;30.15;;;18.20;;
22270;SDS011;11304;53.520;10.104;2024-02-28T13:24:09;30.05;;;19.40;;
22270;SDS011;11304;53.520;10.104;2024-02-28T13:26:35;26.00;;;17.65;;
22270;SDS011;11304;53.520;10.104;2024-02-28T13:29:01;25.27;;;17.80;;
22270;SDS011;11304;53.520;10.104;2024-02-28T13:31:27;22.77;;;16.30;;
22270;SDS011;11304;53.520;10.104;2024-02-28T13:33:54;26.27;;;17.90;;
22270;SDS011;11304;53.520;10.104;2024-02-28T13:36:20;26.45;;;17.35;;
22270;SDS011;11304;53.520;10.104;2024-02-28T13:38:46;25.25;;;16.65;;
22270;SDS011;11304;53.520;10.104;2024-02-28T13:41:12;27.55;;;17.42;;
22270;SDS011;11304;53.520;10.104;2024-02-28T13:43:38;23.10;;;17.05;;
22270;SDS011;11304;53.520;10.104;2024-02-28T13:46:04;26.40;;;17.67;;
22270;SDS011;11304;53.520;10.104;2024-02-28T13:48:30;23.20;;;16.75;;
22270;SDS011;11304;53.520;10.104;2024-02-28T13:50:58;25.85;;;16.80;;
22270;SDS011;11304;53.520;10.104;2024-02-28T13:53:25;23.25;;;16.25;;
22270;SDS011;11304;53.520;10.104;2024-02-28T13:55:51;21.75;;;16.40;;
22270;SDS011;11304;53.520;10.104;2024-02-28T13:58:17;19.60;;;14.45;;
22270;SDS011;11304;53.520;10.104;2024-02-28T14:00:43;21.23;;;15.52;;
22270;SDS011;11304;53.520;10.104;2024-02-28T14:03:10;21.88;;;14.57;;
22270;SDS011;11304;53.520;10.104;2024-02-28T14:05:36;20.52;;;15.30;;
22270;SDS011;11304;53.520;10.104;2024-02-28T14:08:03;24.50;;;16.27;;
22270;SDS011;11304;53.520;10.104;2024-02-28T14:10:29;22.55;;;15.65;;
22270;SDS011;11304;53.520;10.104;2024-02-28T14:12:55;20.63;;;15.35;;
22270;SDS011;11304;53.520;10.104;2024-02-28T14:15:21;23.50;;;16.10;;